Archival Weather

Snohomish County (Paine Fld)

Everett, Washington (KPAE)

Report from: Tuesday, November 7, 2023 3:13 AM PST
Current time: Monday, June 17, 2024 1:30 AM PDT

Current weather – Weather history – Daily summaries
Weather forecast

Present weatherLight rain
Temperature10.0°C (50.0°F)
Wind chill8.8°C (47.8°F)
Dew point8.3°C (46.9°F)
Winds 5 kts (2.6 m/s, 5.8 mph) South-Southwest (210°)
Visibility8 mi. (12.9 km)
Clouds Scattered clouds 500 ft. (152 m)
Ceiling: Broken clouds 900 ft. (274 m)
Overcast 1,800 ft. (549 m)
Altimeter29.79 in.Hg (1009 mB)
Precipitiation0.01 in. (0 mm)
Relative humidity89 %
Density altitude-290 ft. (-88 m)
Remarks Fully automated report
Automated weather observing station with precipitation discriminator
Flight conditions Instrument Meteorological Conditions
Raw dataKPAE 071113Z AUTO 21005KT 8SM -RA SCT005 BKN009 OVC018 10/08 A2979 RMK AO2 P0001 T01000083
An error has occurred. This application may no longer respond until reloaded. Reload 🗙